sensor_id;sensor_type;location;lat;lon;timestamp;P1;durP1;ratioP1;P2;durP2;ratioP2
36797;SDS011;22748;8.426;99.512;2022-09-09T00:01:54;33.10;;;10.77;;
36797;SDS011;22748;8.426;99.512;2022-09-09T00:04:30;21.55;;;9.77;;
36797;SDS011;22748;8.426;99.512;2022-09-09T00:07:07;19.50;;;11.02;;
36797;SDS011;22748;8.426;99.512;2022-09-09T00:09:53;17.58;;;10.43;;
36797;SDS011;22748;8.426;99.512;2022-09-09T00:12:36;18.48;;;9.15;;
36797;SDS011;22748;8.426;99.512;2022-09-09T00:15:12;16.30;;;9.85;;
36797;SDS011;22748;8.426;99.512;2022-09-09T00:17:47;13.32;;;8.07;;
36797;SDS011;22748;8.426;99.512;2022-09-09T00:20:25;25.58;;;9.57;;
36797;SDS011;22748;8.426;99.512;2022-09-09T00:23:10;20.58;;;8.75;;
36797;SDS011;22748;8.426;99.512;2022-09-09T00:25:56;16.17;;;7.50;;
36797;SDS011;22748;8.426;99.512;2022-09-09T00:28:35;17.73;;;7.90;;
36797;SDS011;22748;8.426;99.512;2022-09-09T00:31:14;16.60;;;9.05;;
36797;SDS011;22748;8.426;99.512;2022-09-09T00:33:48;17.23;;;7.72;;
36797;SDS011;22748;8.426;99.512;2022-09-09T00:36:21;17.17;;;7.43;;
36797;SDS011;22748;8.426;99.512;2022-09-09T00:38:56;19.00;;;7.68;;
36797;SDS011;22748;8.426;99.512;2022-09-09T00:41:31;18.50;;;9.05;;
36797;SDS011;22748;8.426;99.512;2022-09-09T00:44:20;13.20;;;7.22;;
36797;SDS011;22748;8.426;99.512;2022-09-09T00:47:04;12.40;;;6.60;;
36797;SDS011;22748;8.426;99.512;2022-09-09T00:49:48;12.63;;;7.43;;
36797;SDS011;22748;8.426;99.512;2022-09-09T00:52:34;16.35;;;7.53;;
36797;SDS011;22748;8.426;99.512;2022-09-09T00:55:12;15.73;;;7.10;;
36797;SDS011;22748;8.426;99.512;2022-09-09T00:57:58;23.58;;;8.35;;
36797;SDS011;22748;8.426;99.512;2022-09-09T01:00:29;20.38;;;9.23;;
36797;SDS011;22748;8.426;99.512;2022-09-09T01:03:10;28.33;;;16.08;;
36797;SDS011;22748;8.426;99.512;2022-09-09T01:06:01;20.75;;;13.20;;
36797;SDS011;22748;8.426;99.512;2022-09-09T01:11:46;18.00;;;9.45;;
36797;SDS011;22748;8.426;99.512;2022-09-09T01:14:27;19.42;;;9.38;;
36797;SDS011;22748;8.426;99.512;2022-09-09T01:17:08;13.40;;;8.15;;
36797;SDS011;22748;8.426;99.512;2022-09-09T01:19:55;16.58;;;8.70;;
36797;SDS011;22748;8.426;99.512;2022-09-09T01:22:34;19.58;;;8.27;;
36797;SDS011;22748;8.426;99.512;2022-09-09T01:25:18;20.25;;;8.75;;
36797;SDS011;22748;8.426;99.512;2022-09-09T01:28:08;22.33;;;8.38;;
36797;SDS011;22748;8.426;99.512;2022-09-09T01:30:43;18.65;;;8.52;;
36797;SDS011;22748;8.426;99.512;2022-09-09T01:33:13;15.80;;;8.40;;
36797;SDS011;22748;8.426;99.512;2022-09-09T01:35:48;17.77;;;9.07;;
36797;SDS011;22748;8.426;99.512;2022-09-09T01:38:22;18.10;;;9.07;;
36797;SDS011;22748;8.426;99.512;2022-09-09T01:40:55;21.40;;;9.30;;
36797;SDS011;22748;8.426;99.512;2022-09-09T01:43:26;15.43;;;9.13;;
36797;SDS011;22748;8.426;99.512;2022-09-09T01:45:59;15.18;;;8.77;;
36797;SDS011;22748;8.426;99.512;2022-09-09T01:48:29;13.48;;;8.15;;
36797;SDS011;22748;8.426;99.512;2022-09-09T01:50:59;16.02;;;8.30;;
36797;SDS011;22748;8.426;99.512;2022-09-09T01:53:31;17.73;;;8.77;;
36797;SDS011;22748;8.426;99.512;2022-09-09T01:56:05;14.95;;;8.68;;
36797;SDS011;22748;8.426;99.512;2022-09-09T01:58:58;14.57;;;8.05;;
36797;SDS011;22748;8.426;99.512;2022-09-09T02:01:42;19.88;;;8.77;;
36797;SDS011;22748;8.426;99.512;2022-09-09T02:04:27;18.70;;;7.75;;
36797;SDS011;22748;8.426;99.512;2022-09-09T02:07:04;13.05;;;8.18;;
36797;SDS011;22748;8.426;99.512;2022-09-09T02:09:44;18.20;;;8.32;;
36797;SDS011;22748;8.426;99.512;2022-09-09T02:12:19;12.00;;;7.60;;
36797;SDS011;22748;8.426;99.512;2022-09-09T02:14:55;14.88;;;7.80;;
36797;SDS011;22748;8.426;99.512;2022-09-09T02:17:30;13.95;;;7.68;;
36797;SDS011;22748;8.426;99.512;2022-09-09T02:20:05;16.73;;;7.97;;
36797;SDS011;22748;8.426;99.512;2022-09-09T02:22:37;12.07;;;6.22;;
36797;SDS011;22748;8.426;99.512;2022-09-09T02:25:15;15.45;;;5.03;;
36797;SDS011;22748;8.426;99.512;2022-09-09T02:27:48;11.98;;;5.78;;
36797;SDS011;22748;8.426;99.512;2022-09-09T02:30:22;10.07;;;5.00;;
36797;SDS011;22748;8.426;99.512;2022-09-09T02:32:54;13.93;;;5.00;;
36797;SDS011;22748;8.426;99.512;2022-09-09T02:35:29;17.83;;;9.35;;
36797;SDS011;22748;8.426;99.512;2022-09-09T02:38:06;14.35;;;6.20;;
36797;SDS011;22748;8.426;99.512;2022-09-09T02:40:39;11.73;;;4.20;;
36797;SDS011;22748;8.426;99.512;2022-09-09T02:43:11;13.65;;;5.22;;
36797;SDS011;22748;8.426;99.512;2022-09-09T02:45:49;9.25;;;3.92;;
36797;SDS011;22748;8.426;99.512;2022-09-09T02:48:29;22.70;;;6.03;;
36797;SDS011;22748;8.426;99.512;2022-09-09T02:51:06;10.13;;;4.35;;
36797;SDS011;22748;8.426;99.512;2022-09-09T02:53:47;16.88;;;4.63;;
36797;SDS011;22748;8.426;99.512;2022-09-09T02:56:30;13.63;;;4.32;;
36797;SDS011;22748;8.426;99.512;2022-09-09T02:59:07;13.55;;;4.60;;
36797;SDS011;22748;8.426;99.512;2022-09-09T03:01:39;12.18;;;4.65;;
36797;SDS011;22748;8.426;99.512;2022-09-09T03:04:12;20.10;;;4.70;;
36797;SDS011;22748;8.426;99.512;2022-09-09T03:06:44;8.35;;;3.97;;
36797;SDS011;22748;8.426;99.512;2022-09-09T03:09:15;18.08;;;4.85;;
36797;SDS011;22748;8.426;99.512;2022-09-09T03:11:46;9.73;;;4.43;;
36797;SDS011;22748;8.426;99.512;2022-09-09T03:14:17;11.35;;;5.00;;
36797;SDS011;22748;8.426;99.512;2022-09-09T03:16:52;15.68;;;4.35;;
36797;SDS011;22748;8.426;99.512;2022-09-09T03:19:22;10.27;;;4.53;;
36797;SDS011;22748;8.426;99.512;2022-09-09T03:21:52;10.10;;;4.50;;
36797;SDS011;22748;8.426;99.512;2022-09-09T03:24:21;13.68;;;4.35;;
36797;SDS011;22748;8.426;99.512;2022-09-09T03:26:51;14.45;;;5.25;;
36797;SDS011;22748;8.426;99.512;2022-09-09T03:29:21;12.20;;;4.70;;
36797;SDS011;22748;8.426;99.512;2022-09-09T03:31:53;19.70;;;4.28;;
36797;SDS011;22748;8.426;99.512;2022-09-09T03:34:22;11.75;;;4.60;;
36797;SDS011;22748;8.426;99.512;2022-09-09T03:36:54;14.48;;;3.70;;
36797;SDS011;22748;8.426;99.512;2022-09-09T03:39:25;18.20;;;4.68;;
36797;SDS011;22748;8.426;99.512;2022-09-09T03:42:00;9.35;;;4.00;;
36797;SDS011;22748;8.426;99.512;2022-09-09T03:44:39;11.82;;;4.40;;
36797;SDS011;22748;8.426;99.512;2022-09-09T03:47:15;8.77;;;3.90;;
36797;SDS011;22748;8.426;99.512;2022-09-09T05:35:28;11.95;;;3.85;;
36797;SDS011;22748;8.426;99.512;2022-09-09T05:37:59;10.55;;;4.00;;
36797;SDS011;22748;8.426;99.512;2022-09-09T05:40:29;8.43;;;3.22;;
36797;SDS011;22748;8.426;99.512;2022-09-09T05:43:00;18.80;;;4.53;;
36797;SDS011;22748;8.426;99.512;2022-09-09T05:45:30;13.90;;;5.22;;
36797;SDS011;22748;8.426;99.512;2022-09-09T05:48:00;10.23;;;4.30;;
36797;SDS011;22748;8.426;99.512;2022-09-09T05:50:32;14.10;;;2.92;;
36797;SDS011;22748;8.426;99.512;2022-09-09T05:53:04;9.38;;;3.17;;
36797;SDS011;22748;8.426;99.512;2022-09-09T05:55:34;13.32;;;4.20;;
36797;SDS011;22748;8.426;99.512;2022-09-09T05:58:03;11.13;;;4.28;;
36797;SDS011;22748;8.426;99.512;2022-09-09T06:00:33;12.88;;;5.38;;
36797;SDS011;22748;8.426;99.512;2022-09-09T06:03:03;20.83;;;11.65;;
36797;SDS011;22748;8.426;99.512;2022-09-09T06:05:34;12.02;;;5.45;;
36797;SDS011;22748;8.426;99.512;2022-09-09T06:08:04;11.52;;;4.10;;
36797;SDS011;22748;8.426;99.512;2022-09-09T06:10:39;9.18;;;3.85;;
36797;SDS011;22748;8.426;99.512;2022-09-09T06:13:09;8.57;;;3.58;;
36797;SDS011;22748;8.426;99.512;2022-09-09T06:18:18;13.52;;;3.55;;
36797;SDS011;22748;8.426;99.512;2022-09-09T06:20:56;6.35;;;3.50;;
36797;SDS011;22748;8.426;99.512;2022-09-09T06:23:27;12.98;;;3.90;;
36797;SDS011;22748;8.426;99.512;2022-09-09T06:26:01;10.23;;;3.60;;
36797;SDS011;22748;8.426;99.512;2022-09-09T06:28:34;10.50;;;3.33;;
36797;SDS011;22748;8.426;99.512;2022-09-09T06:31:04;6.37;;;3.20;;
36797;SDS011;22748;8.426;99.512;2022-09-09T06:33:36;11.13;;;3.67;;
36797;SDS011;22748;8.426;99.512;2022-09-09T06:36:10;7.32;;;3.88;;
36797;SDS011;22748;8.426;99.512;2022-09-09T06:38:41;12.73;;;4.05;;
36797;SDS011;22748;8.426;99.512;2022-09-09T06:41:11;7.95;;;3.20;;
36797;SDS011;22748;8.426;99.512;2022-09-09T06:43:44;6.65;;;3.40;;
36797;SDS011;22748;8.426;99.512;2022-09-09T06:46:15;9.63;;;3.67;;
36797;SDS011;22748;8.426;99.512;2022-09-09T06:48:50;14.00;;;4.03;;
36797;SDS011;22748;8.426;99.512;2022-09-09T06:51:24;10.85;;;5.00;;
36797;SDS011;22748;8.426;99.512;2022-09-09T06:53:56;12.25;;;5.00;;
36797;SDS011;22748;8.426;99.512;2022-09-09T06:56:29;12.50;;;4.70;;
36797;SDS011;22748;8.426;99.512;2022-09-09T06:59:00;11.60;;;3.90;;
36797;SDS011;22748;8.426;99.512;2022-09-09T07:01:34;14.77;;;4.10;;
36797;SDS011;22748;8.426;99.512;2022-09-09T07:04:06;13.60;;;3.63;;
36797;SDS011;22748;8.426;99.512;2022-09-09T07:06:42;7.78;;;3.40;;
36797;SDS011;22748;8.426;99.512;2022-09-09T07:09:14;10.30;;;3.25;;
36797;SDS011;22748;8.426;99.512;2022-09-09T07:11:45;11.18;;;3.70;;
36797;SDS011;22748;8.426;99.512;2022-09-09T07:14:15;13.45;;;3.67;;
36797;SDS011;22748;8.426;99.512;2022-09-09T07:16:47;7.03;;;3.20;;
36797;SDS011;22748;8.426;99.512;2022-09-09T07:19:17;6.05;;;3.13;;
36797;SDS011;22748;8.426;99.512;2022-09-09T07:21:51;10.05;;;3.55;;
36797;SDS011;22748;8.426;99.512;2022-09-09T07:24:22;10.02;;;3.25;;
36797;SDS011;22748;8.426;99.512;2022-09-09T07:29:21;8.85;;;3.33;;
36797;SDS011;22748;8.426;99.512;2022-09-09T07:31:53;11.07;;;4.05;;
36797;SDS011;22748;8.426;99.512;2022-09-09T07:34:22;19.02;;;3.72;;
36797;SDS011;22748;8.426;99.512;2022-09-09T07:36:55;8.80;;;3.20;;
36797;SDS011;22748;8.426;99.512;2022-09-09T07:39:25;11.95;;;3.55;;
36797;SDS011;22748;8.426;99.512;2022-09-09T07:41:55;9.50;;;3.80;;
36797;SDS011;22748;8.426;99.512;2022-09-09T07:44:24;8.60;;;2.97;;
36797;SDS011;22748;8.426;99.512;2022-09-09T07:46:56;7.13;;;3.22;;
36797;SDS011;22748;8.426;99.512;2022-09-09T07:49:26;10.15;;;3.65;;
36797;SDS011;22748;8.426;99.512;2022-09-09T07:51:59;12.20;;;3.45;;
36797;SDS011;22748;8.426;99.512;2022-09-09T07:54:29;9.65;;;3.30;;
36797;SDS011;22748;8.426;99.512;2022-09-09T07:57:00;15.93;;;3.83;;
36797;SDS011;22748;8.426;99.512;2022-09-09T07:59:31;12.02;;;3.58;;
36797;SDS011;22748;8.426;99.512;2022-09-09T08:02:03;12.50;;;2.83;;
36797;SDS011;22748;8.426;99.512;2022-09-09T08:04:35;13.27;;;3.22;;
36797;SDS011;22748;8.426;99.512;2022-09-09T08:07:07;14.57;;;3.22;;
36797;SDS011;22748;8.426;99.512;2022-09-09T08:09:39;9.85;;;3.35;;
36797;SDS011;22748;8.426;99.512;2022-09-09T08:12:10;11.90;;;3.70;;
36797;SDS011;22748;8.426;99.512;2022-09-09T08:14:40;11.70;;;4.70;;
36797;SDS011;22748;8.426;99.512;2022-09-09T08:17:09;13.80;;;4.47;;
36797;SDS011;22748;8.426;99.512;2022-09-09T08:19:39;12.52;;;3.03;;
36797;SDS011;22748;8.426;99.512;2022-09-09T08:27:11;8.25;;;3.28;;
36797;SDS011;22748;8.426;99.512;2022-09-09T08:29:40;11.48;;;2.83;;
36797;SDS011;22748;8.426;99.512;2022-09-09T08:32:13;8.32;;;3.25;;
36797;SDS011;22748;8.426;99.512;2022-09-09T08:35:25;9.05;;;2.90;;
36797;SDS011;22748;8.426;99.512;2022-09-09T08:38:00;13.77;;;4.57;;
36797;SDS011;22748;8.426;99.512;2022-09-09T08:40:32;19.20;;;4.47;;
36797;SDS011;22748;8.426;99.512;2022-09-09T08:43:04;11.00;;;5.40;;
36797;SDS011;22748;8.426;99.512;2022-09-09T08:45:34;7.73;;;3.57;;
36797;SDS011;22748;8.426;99.512;2022-09-09T08:48:22;5.18;;;2.65;;
36797;SDS011;22748;8.426;99.512;2022-09-09T08:51:11;4.25;;;2.28;;
36797;SDS011;22748;8.426;99.512;2022-09-09T08:53:48;17.83;;;2.92;;
36797;SDS011;22748;8.426;99.512;2022-09-09T08:56:21;9.02;;;2.70;;
36797;SDS011;22748;8.426;99.512;2022-09-09T08:58:55;10.43;;;3.10;;
36797;SDS011;22748;8.426;99.512;2022-09-09T09:01:33;9.07;;;3.00;;
36797;SDS011;22748;8.426;99.512;2022-09-09T09:04:43;7.75;;;3.83;;
36797;SDS011;22748;8.426;99.512;2022-09-09T09:07:28;13.35;;;5.10;;
36797;SDS011;22748;8.426;99.512;2022-09-09T09:10:14;15.05;;;7.82;;
36797;SDS011;22748;8.426;99.512;2022-09-09T09:12:58;13.00;;;6.03;;
36797;SDS011;22748;8.426;99.512;2022-09-09T09:15:31;14.93;;;5.28;;
36797;SDS011;22748;8.426;99.512;2022-09-09T09:18:05;10.10;;;3.97;;
36797;SDS011;22748;8.426;99.512;2022-09-09T09:20:44;8.30;;;3.45;;
36797;SDS011;22748;8.426;99.512;2022-09-09T09:23:32;8.43;;;3.70;;
36797;SDS011;22748;8.426;99.512;2022-09-09T09:26:11;9.18;;;3.60;;
36797;SDS011;22748;8.426;99.512;2022-09-09T09:28:42;8.68;;;3.58;;
36797;SDS011;22748;8.426;99.512;2022-09-09T09:31:12;14.50;;;7.18;;
36797;SDS011;22748;8.426;99.512;2022-09-09T09:33:44;8.85;;;4.55;;
36797;SDS011;22748;8.426;99.512;2022-09-09T09:36:16;5.57;;;2.80;;
36797;SDS011;22748;8.426;99.512;2022-09-09T09:38:54;9.23;;;3.13;;
36797;SDS011;22748;8.426;99.512;2022-09-09T09:41:32;9.18;;;5.38;;
36797;SDS011;22748;8.426;99.512;2022-09-09T09:44:04;6.70;;;3.78;;
36797;SDS011;22748;8.426;99.512;2022-09-09T09:46:50;6.32;;;3.10;;
36797;SDS011;22748;8.426;99.512;2022-09-09T09:49:20;7.07;;;3.10;;
36797;SDS011;22748;8.426;99.512;2022-09-09T09:51:50;6.68;;;3.10;;
36797;SDS011;22748;8.426;99.512;2022-09-09T09:54:23;5.73;;;2.67;;
36797;SDS011;22748;8.426;99.512;2022-09-09T09:57:08;7.55;;;1.90;;
36797;SDS011;22748;8.426;99.512;2022-09-09T10:02:14;3.50;;;1.35;;
36797;SDS011;22748;8.426;99.512;2022-09-09T10:04:46;4.82;;;1.52;;
36797;SDS011;22748;8.426;99.512;2022-09-09T10:07:18;3.72;;;1.75;;
36797;SDS011;22748;8.426;99.512;2022-09-09T10:09:51;3.80;;;1.30;;
36797;SDS011;22748;8.426;99.512;2022-09-09T10:12:27;3.72;;;0.70;;
36797;SDS011;22748;8.426;99.512;2022-09-09T10:15:14;3.90;;;1.05;;
36797;SDS011;22748;8.426;99.512;2022-09-09T10:17:57;4.20;;;1.42;;
36797;SDS011;22748;8.426;99.512;2022-09-09T10:20:36;5.78;;;1.58;;
36797;SDS011;22748;8.426;99.512;2022-09-09T10:23:20;3.28;;;1.10;;
36797;SDS011;22748;8.426;99.512;2022-09-09T10:26:01;2.25;;;0.80;;
36797;SDS011;22748;8.426;99.512;2022-09-09T10:28:51;9.57;;;1.40;;
36797;SDS011;22748;8.426;99.512;2022-09-09T10:31:36;3.03;;;1.23;;
36797;SDS011;22748;8.426;99.512;2022-09-09T10:34:18;5.25;;;2.85;;
36797;SDS011;22748;8.426;99.512;2022-09-09T10:37:01;5.72;;;2.08;;
36797;SDS011;22748;8.426;99.512;2022-09-09T10:39:40;4.65;;;2.38;;
36797;SDS011;22748;8.426;99.512;2022-09-09T10:42:12;4.87;;;1.73;;
36797;SDS011;22748;8.426;99.512;2022-09-09T10:44:55;2.78;;;2.10;;
36797;SDS011;22748;8.426;99.512;2022-09-09T10:47:53;5.75;;;4.10;;
36797;SDS011;22748;8.426;99.512;2022-09-09T10:50:42;15.40;;;9.38;;
36797;SDS011;22748;8.426;99.512;2022-09-09T10:53:26;13.43;;;7.90;;
36797;SDS011;22748;8.426;99.512;2022-09-09T10:56:07;11.50;;;4.78;;
36797;SDS011;22748;8.426;99.512;2022-09-09T10:58:42;4.57;;;2.10;;
36797;SDS011;22748;8.426;99.512;2022-09-09T11:01:18;7.78;;;1.90;;
36797;SDS011;22748;8.426;99.512;2022-09-09T11:03:56;3.80;;;2.20;;
36797;SDS011;22748;8.426;99.512;2022-09-09T11:06:31;18.65;;;8.45;;
36797;SDS011;22748;8.426;99.512;2022-09-09T11:09:10;19.83;;;12.60;;
36797;SDS011;22748;8.426;99.512;2022-09-09T11:11:44;41.42;;;20.33;;
36797;SDS011;22748;8.426;99.512;2022-09-09T11:14:20;12.45;;;4.22;;
36797;SDS011;22748;8.426;99.512;2022-09-09T11:17:00;8.57;;;4.57;;
36797;SDS011;22748;8.426;99.512;2022-09-09T11:19:33;10.57;;;8.43;;
36797;SDS011;22748;8.426;99.512;2022-09-09T11:22:14;20.60;;;14.60;;
36797;SDS011;22748;8.426;99.512;2022-09-09T11:24:50;22.05;;;18.73;;
36797;SDS011;22748;8.426;99.512;2022-09-09T11:27:26;26.92;;;20.95;;
36797;SDS011;22748;8.426;99.512;2022-09-09T11:30:10;16.73;;;14.05;;
36797;SDS011;22748;8.426;99.512;2022-09-09T11:32:58;7.60;;;5.63;;
36797;SDS011;22748;8.426;99.512;2022-09-09T11:35:41;7.78;;;4.45;;
36797;SDS011;22748;8.426;99.512;2022-09-09T11:38:31;9.15;;;3.78;;
36797;SDS011;22748;8.426;99.512;2022-09-09T11:41:07;4.38;;;2.50;;
36797;SDS011;22748;8.426;99.512;2022-09-09T11:43:39;4.57;;;1.90;;
36797;SDS011;22748;8.426;99.512;2022-09-09T11:46:16;3.63;;;1.75;;
36797;SDS011;22748;8.426;99.512;2022-09-09T11:49:39;6.88;;;3.70;;
36797;SDS011;22748;8.426;99.512;2022-09-09T11:55:25;10.15;;;5.70;;
36797;SDS011;22748;8.426;99.512;2022-09-09T11:57:58;9.63;;;5.10;;
36797;SDS011;22748;8.426;99.512;2022-09-09T12:00:32;7.70;;;4.30;;
36797;SDS011;22748;8.426;99.512;2022-09-09T12:03:08;5.20;;;3.47;;
36797;SDS011;22748;8.426;99.512;2022-09-09T12:06:17;7.72;;;3.67;;
36797;SDS011;22748;8.426;99.512;2022-09-09T12:08:57;5.53;;;3.50;;
36797;SDS011;22748;8.426;99.512;2022-09-09T12:11:37;4.75;;;3.25;;
36797;SDS011;22748;8.426;99.512;2022-09-09T12:14:18;7.47;;;3.40;;
36797;SDS011;22748;8.426;99.512;2022-09-09T12:16:49;6.05;;;3.55;;
36797;SDS011;22748;8.426;99.512;2022-09-09T12:19:22;4.95;;;2.88;;
36797;SDS011;22748;8.426;99.512;2022-09-09T12:21:57;2.92;;;2.25;;
36797;SDS011;22748;8.426;99.512;2022-09-09T12:24:37;5.57;;;1.90;;
36797;SDS011;22748;8.426;99.512;2022-09-09T12:27:20;3.30;;;1.95;;
36797;SDS011;22748;8.426;99.512;2022-09-09T12:29:58;2.10;;;1.60;;
36797;SDS011;22748;8.426;99.512;2022-09-09T12:32:33;4.07;;;2.30;;
36797;SDS011;22748;8.426;99.512;2022-09-09T12:35:09;4.18;;;1.88;;
36797;SDS011;22748;8.426;99.512;2022-09-09T12:37:47;3.72;;;2.70;;
36797;SDS011;22748;8.426;99.512;2022-09-09T12:40:24;5.43;;;3.33;;
36797;SDS011;22748;8.426;99.512;2022-09-09T12:42:58;7.47;;;5.20;;
36797;SDS011;22748;8.426;99.512;2022-09-09T12:45:29;8.40;;;4.97;;
36797;SDS011;22748;8.426;99.512;2022-09-09T12:48:03;8.38;;;4.95;;
36797;SDS011;22748;8.426;99.512;2022-09-09T12:50:42;7.63;;;4.43;;
36797;SDS011;22748;8.426;99.512;2022-09-09T12:53:20;5.43;;;4.28;;
36797;SDS011;22748;8.426;99.512;2022-09-09T12:55:57;5.37;;;3.90;;
36797;SDS011;22748;8.426;99.512;2022-09-09T12:58:28;5.90;;;3.60;;
36797;SDS011;22748;8.426;99.512;2022-09-09T13:01:01;8.10;;;3.03;;
36797;SDS011;22748;8.426;99.512;2022-09-09T13:03:31;6.65;;;3.38;;
36797;SDS011;22748;8.426;99.512;2022-09-09T13:06:16;5.45;;;2.53;;
36797;SDS011;22748;8.426;99.512;2022-09-09T13:08:53;4.32;;;2.85;;
36797;SDS011;22748;8.426;99.512;2022-09-09T13:11:27;4.55;;;2.30;;
36797;SDS011;22748;8.426;99.512;2022-09-09T13:14:13;6.38;;;2.80;;
36797;SDS011;22748;8.426;99.512;2022-09-09T13:16:54;4.03;;;2.72;;
36797;SDS011;22748;8.426;99.512;2022-09-09T13:19:25;4.07;;;2.42;;
36797;SDS011;22748;8.426;99.512;2022-09-09T13:21:59;5.35;;;3.05;;
36797;SDS011;22748;8.426;99.512;2022-09-09T13:27:23;6.35;;;2.72;;
36797;SDS011;22748;8.426;99.512;2022-09-09T13:30:00;4.53;;;2.58;;
36797;SDS011;22748;8.426;99.512;2022-09-09T13:32:48;3.95;;;2.58;;
36797;SDS011;22748;8.426;99.512;2022-09-09T13:35:34;5.82;;;2.70;;
36797;SDS011;22748;8.426;99.512;2022-09-09T13:38:15;6.90;;;2.70;;
36797;SDS011;22748;8.426;99.512;2022-09-09T13:40:57;5.38;;;2.50;;
36797;SDS011;22748;8.426;99.512;2022-09-09T13:43:31;4.78;;;3.20;;
36797;SDS011;22748;8.426;99.512;2022-09-09T13:46:05;4.68;;;3.05;;
36797;SDS011;22748;8.426;99.512;2022-09-09T13:48:56;5.70;;;3.10;;
36797;SDS011;22748;8.426;99.512;2022-09-09T13:51:29;6.20;;;3.13;;
36797;SDS011;22748;8.426;99.512;2022-09-09T13:54:13;5.90;;;3.72;;
36797;SDS011;22748;8.426;99.512;2022-09-09T13:57:02;6.15;;;3.42;;
36797;SDS011;22748;8.426;99.512;2022-09-09T13:59:36;3.42;;;2.47;;
36797;SDS011;22748;8.426;99.512;2022-09-09T14:02:07;4.80;;;3.13;;
36797;SDS011;22748;8.426;99.512;2022-09-09T14:04:37;3.33;;;2.50;;
36797;SDS011;22748;8.426;99.512;2022-09-09T14:07:09;6.78;;;3.05;;
36797;SDS011;22748;8.426;99.512;2022-09-09T14:09:43;7.82;;;2.70;;
36797;SDS011;22748;8.426;99.512;2022-09-09T14:12:18;3.70;;;2.78;;
36797;SDS011;22748;8.426;99.512;2022-09-09T14:14:49;4.45;;;2.95;;
36797;SDS011;22748;8.426;99.512;2022-09-09T14:17:20;4.75;;;3.00;;
36797;SDS011;22748;8.426;99.512;2022-09-09T14:19:51;5.53;;;3.25;;
36797;SDS011;22748;8.426;99.512;2022-09-09T14:22:22;9.13;;;3.20;;
36797;SDS011;22748;8.426;99.512;2022-09-09T14:24:52;8.15;;;2.72;;
36797;SDS011;22748;8.426;99.512;2022-09-09T14:27:25;5.72;;;3.28;;
36797;SDS011;22748;8.426;99.512;2022-09-09T14:29:56;8.88;;;3.10;;
36797;SDS011;22748;8.426;99.512;2022-09-09T14:32:27;6.10;;;3.30;;
36797;SDS011;22748;8.426;99.512;2022-09-09T14:35:00;5.57;;;3.40;;
36797;SDS011;22748;8.426;99.512;2022-09-09T14:37:33;7.10;;;3.83;;
36797;SDS011;22748;8.426;99.512;2022-09-09T14:40:03;8.40;;;3.40;;
36797;SDS011;22748;8.426;99.512;2022-09-09T14:42:35;4.50;;;3.20;;
36797;SDS011;22748;8.426;99.512;2022-09-09T14:45:05;8.50;;;3.83;;
36797;SDS011;22748;8.426;99.512;2022-09-09T14:47:36;6.25;;;3.83;;
36797;SDS011;22748;8.426;99.512;2022-09-09T14:50:07;6.90;;;4.00;;
36797;SDS011;22748;8.426;99.512;2022-09-09T14:52:41;6.25;;;4.13;;
36797;SDS011;22748;8.426;99.512;2022-09-09T14:55:11;9.52;;;4.15;;
36797;SDS011;22748;8.426;99.512;2022-09-09T14:57:42;8.98;;;4.10;;
36797;SDS011;22748;8.426;99.512;2022-09-09T15:00:14;5.78;;;3.90;;
36797;SDS011;22748;8.426;99.512;2022-09-09T15:02:44;8.15;;;4.57;;
36797;SDS011;22748;8.426;99.512;2022-09-09T15:05:14;9.82;;;3.88;;
36797;SDS011;22748;8.426;99.512;2022-09-09T15:07:50;6.07;;;4.15;;
36797;SDS011;22748;8.426;99.512;2022-09-09T15:10:22;5.72;;;4.20;;
36797;SDS011;22748;8.426;99.512;2022-09-09T15:12:54;9.70;;;4.45;;
36797;SDS011;22748;8.426;99.512;2022-09-09T15:15:25;9.02;;;4.13;;
36797;SDS011;22748;8.426;99.512;2022-09-09T15:17:57;7.72;;;4.10;;
36797;SDS011;22748;8.426;99.512;2022-09-09T15:20:29;6.47;;;4.03;;
36797;SDS011;22748;8.426;99.512;2022-09-09T15:22:59;6.97;;;4.15;;
36797;SDS011;22748;8.426;99.512;2022-09-09T15:25:30;6.93;;;4.30;;
36797;SDS011;22748;8.426;99.512;2022-09-09T15:28:04;7.70;;;4.15;;
36797;SDS011;22748;8.426;99.512;2022-09-09T15:30:36;6.78;;;4.50;;
36797;SDS011;22748;8.426;99.512;2022-09-09T15:33:08;9.60;;;4.32;;
36797;SDS011;22748;8.426;99.512;2022-09-09T15:35:37;4.50;;;3.80;;
36797;SDS011;22748;8.426;99.512;2022-09-09T15:38:10;6.10;;;3.67;;
36797;SDS011;22748;8.426;99.512;2022-09-09T15:40:44;6.55;;;3.97;;
36797;SDS011;22748;8.426;99.512;2022-09-09T15:43:27;7.68;;;4.18;;
36797;SDS011;22748;8.426;99.512;2022-09-09T15:46:00;9.38;;;5.25;;
36797;SDS011;22748;8.426;99.512;2022-09-09T15:48:54;7.07;;;4.53;;
36797;SDS011;22748;8.426;99.512;2022-09-09T15:51:26;6.82;;;4.30;;
36797;SDS011;22748;8.426;99.512;2022-09-09T15:53:58;6.53;;;4.10;;
36797;SDS011;22748;8.426;99.512;2022-09-09T15:56:29;4.60;;;3.50;;
36797;SDS011;22748;8.426;99.512;2022-09-09T15:59:04;9.23;;;4.25;;
36797;SDS011;22748;8.426;99.512;2022-09-09T16:01:35;8.43;;;3.80;;
36797;SDS011;22748;8.426;99.512;2022-09-09T16:04:06;6.68;;;4.90;;
36797;SDS011;22748;8.426;99.512;2022-09-09T16:06:37;6.57;;;4.70;;
36797;SDS011;22748;8.426;99.512;2022-09-09T16:09:10;10.00;;;5.35;;
36797;SDS011;22748;8.426;99.512;2022-09-09T16:11:39;8.48;;;5.03;;
36797;SDS011;22748;8.426;99.512;2022-09-09T16:14:12;8.60;;;5.10;;
36797;SDS011;22748;8.426;99.512;2022-09-09T16:16:47;7.50;;;4.80;;
36797;SDS011;22748;8.426;99.512;2022-09-09T16:19:19;6.38;;;5.00;;
36797;SDS011;22748;8.426;99.512;2022-09-09T16:21:49;9.43;;;4.57;;
36797;SDS011;22748;8.426;99.512;2022-09-09T16:24:21;8.75;;;4.88;;
36797;SDS011;22748;8.426;99.512;2022-09-09T16:26:52;7.03;;;4.55;;
36797;SDS011;22748;8.426;99.512;2022-09-09T16:29:24;7.03;;;4.45;;
36797;SDS011;22748;8.426;99.512;2022-09-09T16:31:54;4.78;;;3.95;;
36797;SDS011;22748;8.426;99.512;2022-09-09T16:34:26;6.70;;;4.03;;
36797;SDS011;22748;8.426;99.512;2022-09-09T16:36:56;7.03;;;4.50;;
36797;SDS011;22748;8.426;99.512;2022-09-09T16:39:27;8.75;;;3.90;;
36797;SDS011;22748;8.426;99.512;2022-09-09T16:41:57;9.23;;;3.83;;
36797;SDS011;22748;8.426;99.512;2022-09-09T16:44:30;8.75;;;3.95;;
36797;SDS011;22748;8.426;99.512;2022-09-09T16:47:01;7.18;;;4.03;;
36797;SDS011;22748;8.426;99.512;2022-09-09T16:49:32;5.72;;;3.85;;
36797;SDS011;22748;8.426;99.512;2022-09-09T16:52:02;8.50;;;4.47;;
36797;SDS011;22748;8.426;99.512;2022-09-09T16:54:33;8.85;;;3.70;;
36797;SDS011;22748;8.426;99.512;2022-09-09T16:59:35;5.35;;;3.65;;
36797;SDS011;22748;8.426;99.512;2022-09-09T17:02:07;7.07;;;3.83;;
36797;SDS011;22748;8.426;99.512;2022-09-09T17:04:38;6.95;;;3.90;;
36797;SDS011;22748;8.426;99.512;2022-09-09T17:07:10;8.07;;;3.70;;
36797;SDS011;22748;8.426;99.512;2022-09-09T17:09:42;7.75;;;4.22;;
36797;SDS011;22748;8.426;99.512;2022-09-09T17:12:14;8.98;;;3.85;;
36797;SDS011;22748;8.426;99.512;2022-09-09T17:14:47;5.10;;;3.70;;
36797;SDS011;22748;8.426;99.512;2022-09-09T17:17:22;5.15;;;3.67;;
36797;SDS011;22748;8.426;99.512;2022-09-09T17:19:54;6.35;;;3.45;;
36797;SDS011;22748;8.426;99.512;2022-09-09T17:22:25;6.00;;;3.42;;
36797;SDS011;22748;8.426;99.512;2022-09-09T17:24:56;5.53;;;3.25;;
36797;SDS011;22748;8.426;99.512;2022-09-09T17:27:26;6.60;;;3.47;;
36797;SDS011;22748;8.426;99.512;2022-09-09T17:29:59;8.30;;;3.35;;
36797;SDS011;22748;8.426;99.512;2022-09-09T17:34:59;5.43;;;3.63;;
36797;SDS011;22748;8.426;99.512;2022-09-09T17:37:33;5.00;;;3.33;;
36797;SDS011;22748;8.426;99.512;2022-09-09T17:40:05;6.30;;;3.20;;
36797;SDS011;22748;8.426;99.512;2022-09-09T17:42:37;4.53;;;3.22;;